Decoded Metar for EPLL (LODZ in POLAND) (IATA:N/A) | Meteo·Mobile Aviation Weather
aviador You're here:

EPLL Decoded Metar

LODZ in POLAND
Report Time2018-12-11 09:00:00
UTC Time2018-12-11 09:09:22
Flight Rules lifr LIFR
Wind180° at 04 kt
W.Decomp.*RWY 25: 1.1 kt HW 3.8 kt LCW
W.Rank180° ranks 25
Current wind is below 180° avg. (5.7)
Visibility6000 m
Phenomena:Light Snow
Clouds:Broken 004 Hf
Ceiling400 ft
Temp01°C (ISA -13)
Dew Point01°C (100% RH)
AAT-2.3°C
QNH1008 hPa
Density Alt-692 ft
Elevation604 ft
Report Wrong Elevation
Raw Report
METAR EPLL 110900Z 18004KT 120V220 6000 -SN BKN004 01/01 Q1008 =

Extra information for EPLL:More info

Metar Taf Metar & Taf Last 4 Metars F.Rules Stats Wind Profile Meteogram Temp Stats Airport Information Weather charts Add Link Nearby VenuesMetar ALERT Operation Metar Decoded Social comments